sensor_id;sensor_type;location;lat;lon;timestamp;P1;durP1;ratioP1;P2;durP2;ratioP2
18580;SDS011;9420;50.876;7.012;2023-04-10T00:02:22;16.30;;;10.60;;
18580;SDS011;9420;50.876;7.012;2023-04-10T00:04:51;15.27;;;10.50;;
18580;SDS011;9420;50.876;7.012;2023-04-10T00:07:18;15.50;;;10.73;;
18580;SDS011;9420;50.876;7.012;2023-04-10T00:09:45;16.53;;;10.57;;
18580;SDS011;9420;50.876;7.012;2023-04-10T00:12:13;14.53;;;9.87;;
18580;SDS011;9420;50.876;7.012;2023-04-10T00:14:40;13.27;;;9.80;;
18580;SDS011;9420;50.876;7.012;2023-04-10T00:17:07;14.67;;;10.30;;
18580;SDS011;9420;50.876;7.012;2023-04-10T00:19:34;14.90;;;11.00;;
18580;SDS011;9420;50.876;7.012;2023-04-10T00:22:03;14.20;;;10.47;;
18580;SDS011;9420;50.876;7.012;2023-04-10T00:24:31;14.10;;;9.87;;
18580;SDS011;9420;50.876;7.012;2023-04-10T00:26:58;15.13;;;10.00;;
18580;SDS011;9420;50.876;7.012;2023-04-10T00:29:25;15.87;;;10.30;;
18580;SDS011;9420;50.876;7.012;2023-04-10T00:31:52;12.73;;;10.17;;
18580;SDS011;9420;50.876;7.012;2023-04-10T00:34:19;13.77;;;9.40;;
18580;SDS011;9420;50.876;7.012;2023-04-10T00:36:46;13.23;;;9.17;;
18580;SDS011;9420;50.876;7.012;2023-04-10T00:39:15;14.47;;;10.67;;
18580;SDS011;9420;50.876;7.012;2023-04-10T00:41:42;15.37;;;10.93;;
18580;SDS011;9420;50.876;7.012;2023-04-10T00:44:09;13.60;;;10.10;;
18580;SDS011;9420;50.876;7.012;2023-04-10T00:46:36;15.07;;;10.47;;
18580;SDS011;9420;50.876;7.012;2023-04-10T00:49:05;15.53;;;11.07;;
18580;SDS011;9420;50.876;7.012;2023-04-10T00:51:33;16.03;;;10.33;;
18580;SDS011;9420;50.876;7.012;2023-04-10T00:54:01;15.50;;;9.53;;
18580;SDS011;9420;50.876;7.012;2023-04-10T00:56:32;13.50;;;10.57;;
18580;SDS011;9420;50.876;7.012;2023-04-10T00:59:00;15.20;;;10.27;;
18580;SDS011;9420;50.876;7.012;2023-04-10T01:01:27;17.07;;;11.00;;
18580;SDS011;9420;50.876;7.012;2023-04-10T01:03:55;12.17;;;9.23;;
18580;SDS011;9420;50.876;7.012;2023-04-10T01:06:26;21.33;;;10.67;;
18580;SDS011;9420;50.876;7.012;2023-04-10T01:09:09;16.27;;;9.83;;
18580;SDS011;9420;50.876;7.012;2023-04-10T01:11:50;13.97;;;9.20;;
18580;SDS011;9420;50.876;7.012;2023-04-10T01:14:26;15.17;;;10.47;;
18580;SDS011;9420;50.876;7.012;2023-04-10T01:17:03;12.57;;;8.93;;
18580;SDS011;9420;50.876;7.012;2023-04-10T01:19:46;13.50;;;10.03;;
18580;SDS011;9420;50.876;7.012;2023-04-10T01:22:27;14.27;;;9.47;;
18580;SDS011;9420;50.876;7.012;2023-04-10T01:28:23;15.13;;;9.67;;
18580;SDS011;9420;50.876;7.012;2023-04-10T01:31:26;14.30;;;9.33;;
18580;SDS011;9420;50.876;7.012;2023-04-10T01:34:03;13.23;;;10.23;;
18580;SDS011;9420;50.876;7.012;2023-04-10T01:36:35;15.00;;;10.40;;
18580;SDS011;9420;50.876;7.012;2023-04-10T01:39:21;12.00;;;8.80;;
18580;SDS011;9420;50.876;7.012;2023-04-10T01:41:52;15.07;;;10.63;;
18580;SDS011;9420;50.876;7.012;2023-04-10T01:44:24;13.77;;;11.00;;
18580;SDS011;9420;50.876;7.012;2023-04-10T01:46:55;13.00;;;9.33;;
18580;SDS011;9420;50.876;7.012;2023-04-10T01:49:24;14.13;;;10.57;;
18580;SDS011;9420;50.876;7.012;2023-04-10T01:51:54;14.53;;;9.50;;
18580;SDS011;9420;50.876;7.012;2023-04-10T01:54:24;15.27;;;10.73;;
18580;SDS011;9420;50.876;7.012;2023-04-10T01:56:52;15.60;;;10.47;;
18580;SDS011;9420;50.876;7.012;2023-04-10T01:59:20;18.47;;;11.10;;
18580;SDS011;9420;50.876;7.012;2023-04-10T02:01:54;14.93;;;10.63;;
18580;SDS011;9420;50.876;7.012;2023-04-10T02:04:22;14.17;;;10.63;;
18580;SDS011;9420;50.876;7.012;2023-04-10T02:06:54;16.17;;;11.23;;
18580;SDS011;9420;50.876;7.012;2023-04-10T02:09:30;15.70;;;11.00;;
18580;SDS011;9420;50.876;7.012;2023-04-10T02:12:12;15.80;;;10.53;;
18580;SDS011;9420;50.876;7.012;2023-04-10T02:14:45;14.73;;;9.70;;
18580;SDS011;9420;50.876;7.012;2023-04-10T02:17:17;13.87;;;10.13;;
18580;SDS011;9420;50.876;7.012;2023-04-10T02:19:51;15.23;;;10.20;;
18580;SDS011;9420;50.876;7.012;2023-04-10T02:22:21;14.50;;;9.93;;
18580;SDS011;9420;50.876;7.012;2023-04-10T02:24:51;13.53;;;9.23;;
18580;SDS011;9420;50.876;7.012;2023-04-10T02:27:25;12.90;;;9.43;;
18580;SDS011;9420;50.876;7.012;2023-04-10T02:29:54;13.60;;;9.83;;
18580;SDS011;9420;50.876;7.012;2023-04-10T02:32:22;12.27;;;8.70;;
18580;SDS011;9420;50.876;7.012;2023-04-10T02:34:50;18.07;;;9.90;;
18580;SDS011;9420;50.876;7.012;2023-04-10T02:37:17;14.67;;;10.17;;
18580;SDS011;9420;50.876;7.012;2023-04-10T02:39:44;12.97;;;9.67;;
18580;SDS011;9420;50.876;7.012;2023-04-10T02:42:11;12.13;;;9.50;;
18580;SDS011;9420;50.876;7.012;2023-04-10T02:44:38;12.87;;;9.73;;
18580;SDS011;9420;50.876;7.012;2023-04-10T02:47:05;13.13;;;9.30;;
18580;SDS011;9420;50.876;7.012;2023-04-10T02:49:34;14.83;;;9.43;;
18580;SDS011;9420;50.876;7.012;2023-04-10T02:52:01;13.10;;;9.43;;
18580;SDS011;9420;50.876;7.012;2023-04-10T02:54:29;13.00;;;8.90;;
18580;SDS011;9420;50.876;7.012;2023-04-10T02:56:56;13.10;;;9.27;;
18580;SDS011;9420;50.876;7.012;2023-04-10T02:59:23;13.63;;;10.57;;
18580;SDS011;9420;50.876;7.012;2023-04-10T03:01:50;12.87;;;9.60;;
18580;SDS011;9420;50.876;7.012;2023-04-10T03:04:17;14.73;;;9.50;;
18580;SDS011;9420;50.876;7.012;2023-04-10T03:06:46;15.53;;;10.27;;
18580;SDS011;9420;50.876;7.012;2023-04-10T03:09:13;12.30;;;9.03;;
18580;SDS011;9420;50.876;7.012;2023-04-10T03:11:40;12.30;;;9.10;;
18580;SDS011;9420;50.876;7.012;2023-04-10T03:14:07;12.30;;;9.13;;
18580;SDS011;9420;50.876;7.012;2023-04-10T03:16:34;12.13;;;9.13;;
18580;SDS011;9420;50.876;7.012;2023-04-10T03:19:02;13.97;;;10.20;;
18580;SDS011;9420;50.876;7.012;2023-04-10T03:21:29;13.43;;;9.47;;
18580;SDS011;9420;50.876;7.012;2023-04-10T03:23:57;13.90;;;9.93;;
18580;SDS011;9420;50.876;7.012;2023-04-10T03:26:25;11.53;;;8.57;;
18580;SDS011;9420;50.876;7.012;2023-04-10T03:28:53;16.17;;;11.23;;
18580;SDS011;9420;50.876;7.012;2023-04-10T03:31:20;14.83;;;10.30;;
18580;SDS011;9420;50.876;7.012;2023-04-10T03:33:47;12.97;;;8.77;;
18580;SDS011;9420;50.876;7.012;2023-04-10T03:36:14;12.73;;;9.23;;
18580;SDS011;9420;50.876;7.012;2023-04-10T03:38:41;14.07;;;9.50;;
18580;SDS011;9420;50.876;7.012;2023-04-10T03:41:10;12.83;;;9.63;;
18580;SDS011;9420;50.876;7.012;2023-04-10T03:43:37;13.63;;;9.47;;
18580;SDS011;9420;50.876;7.012;2023-04-10T03:46:05;13.03;;;9.83;;
18580;SDS011;9420;50.876;7.012;2023-04-10T03:48:32;13.03;;;9.70;;
18580;SDS011;9420;50.876;7.012;2023-04-10T03:50:59;15.77;;;9.73;;
18580;SDS011;9420;50.876;7.012;2023-04-10T03:53:27;14.23;;;10.30;;
18580;SDS011;9420;50.876;7.012;2023-04-10T03:55:54;11.80;;;8.97;;
18580;SDS011;9420;50.876;7.012;2023-04-10T03:58:22;13.57;;;9.47;;
18580;SDS011;9420;50.876;7.012;2023-04-10T04:00:50;13.53;;;9.73;;
18580;SDS011;9420;50.876;7.012;2023-04-10T04:03:17;13.70;;;8.63;;
18580;SDS011;9420;50.876;7.012;2023-04-10T04:05:44;15.13;;;10.07;;
18580;SDS011;9420;50.876;7.012;2023-04-10T04:08:10;14.70;;;9.40;;
18580;SDS011;9420;50.876;7.012;2023-04-10T04:10:38;14.13;;;8.77;;
18580;SDS011;9420;50.876;7.012;2023-04-10T04:13:05;14.50;;;10.37;;
18580;SDS011;9420;50.876;7.012;2023-04-10T04:15:33;13.83;;;9.53;;
18580;SDS011;9420;50.876;7.012;2023-04-10T04:18:00;13.43;;;9.13;;
18580;SDS011;9420;50.876;7.012;2023-04-10T04:20:28;12.93;;;9.70;;
18580;SDS011;9420;50.876;7.012;2023-04-10T04:22:54;13.87;;;9.73;;
18580;SDS011;9420;50.876;7.012;2023-04-10T04:25:21;14.10;;;9.13;;
18580;SDS011;9420;50.876;7.012;2023-04-10T04:27:48;14.23;;;10.30;;
18580;SDS011;9420;50.876;7.012;2023-04-10T04:30:15;14.97;;;9.07;;
18580;SDS011;9420;50.876;7.012;2023-04-10T04:32:44;12.63;;;9.70;;
18580;SDS011;9420;50.876;7.012;2023-04-10T04:35:11;14.93;;;9.43;;
18580;SDS011;9420;50.876;7.012;2023-04-10T04:37:38;10.70;;;8.20;;
18580;SDS011;9420;50.876;7.012;2023-04-10T04:40:05;12.60;;;9.30;;
18580;SDS011;9420;50.876;7.012;2023-04-10T04:42:33;15.73;;;9.33;;
18580;SDS011;9420;50.876;7.012;2023-04-10T04:45:01;14.03;;;9.87;;
18580;SDS011;9420;50.876;7.012;2023-04-10T04:47:28;13.50;;;9.33;;
18580;SDS011;9420;50.876;7.012;2023-04-10T04:49:58;15.10;;;10.10;;
18580;SDS011;9420;50.876;7.012;2023-04-10T04:52:25;14.20;;;9.10;;
18580;SDS011;9420;50.876;7.012;2023-04-10T04:54:52;13.43;;;9.40;;
18580;SDS011;9420;50.876;7.012;2023-04-10T04:57:19;13.37;;;9.97;;
18580;SDS011;9420;50.876;7.012;2023-04-10T04:59:46;12.77;;;9.23;;
18580;SDS011;9420;50.876;7.012;2023-04-10T05:02:13;14.60;;;9.70;;
18580;SDS011;9420;50.876;7.012;2023-04-10T05:04:42;13.10;;;9.70;;
18580;SDS011;9420;50.876;7.012;2023-04-10T05:07:11;12.13;;;8.77;;
18580;SDS011;9420;50.876;7.012;2023-04-10T05:09:38;13.23;;;10.37;;
18580;SDS011;9420;50.876;7.012;2023-04-10T05:12:06;12.07;;;9.37;;
18580;SDS011;9420;50.876;7.012;2023-04-10T05:14:33;16.23;;;9.80;;
18580;SDS011;9420;50.876;7.012;2023-04-10T05:17:00;13.60;;;9.57;;
18580;SDS011;9420;50.876;7.012;2023-04-10T05:19:27;15.47;;;9.23;;
18580;SDS011;9420;50.876;7.012;2023-04-10T05:21:55;13.20;;;8.57;;
18580;SDS011;9420;50.876;7.012;2023-04-10T05:24:24;13.67;;;9.77;;
18580;SDS011;9420;50.876;7.012;2023-04-10T05:26:50;13.13;;;9.33;;
18580;SDS011;9420;50.876;7.012;2023-04-10T05:29:17;14.73;;;9.30;;
18580;SDS011;9420;50.876;7.012;2023-04-10T05:31:45;14.23;;;9.57;;
18580;SDS011;9420;50.876;7.012;2023-04-10T05:34:12;15.10;;;9.77;;
18580;SDS011;9420;50.876;7.012;2023-04-10T05:36:41;12.83;;;9.00;;
18580;SDS011;9420;50.876;7.012;2023-04-10T05:39:08;14.70;;;9.47;;
18580;SDS011;9420;50.876;7.012;2023-04-10T05:41:36;13.17;;;9.80;;
18580;SDS011;9420;50.876;7.012;2023-04-10T05:44:03;13.80;;;9.50;;
18580;SDS011;9420;50.876;7.012;2023-04-10T05:46:30;14.47;;;10.23;;
18580;SDS011;9420;50.876;7.012;2023-04-10T05:48:58;13.20;;;10.23;;
18580;SDS011;9420;50.876;7.012;2023-04-10T05:51:25;12.63;;;8.97;;
18580;SDS011;9420;50.876;7.012;2023-04-10T05:53:54;12.63;;;9.30;;
18580;SDS011;9420;50.876;7.012;2023-04-10T05:56:21;13.03;;;9.27;;
18580;SDS011;9420;50.876;7.012;2023-04-10T05:58:49;15.73;;;9.50;;
18580;SDS011;9420;50.876;7.012;2023-04-10T06:01:16;12.57;;;8.57;;
18580;SDS011;9420;50.876;7.012;2023-04-10T06:03:44;13.57;;;10.13;;
18580;SDS011;9420;50.876;7.012;2023-04-10T06:06:11;15.47;;;10.97;;
18580;SDS011;9420;50.876;7.012;2023-04-10T06:08:38;13.37;;;9.03;;
18580;SDS011;9420;50.876;7.012;2023-04-10T06:11:05;14.13;;;9.77;;
18580;SDS011;9420;50.876;7.012;2023-04-10T06:13:32;12.90;;;8.33;;
18580;SDS011;9420;50.876;7.012;2023-04-10T06:16:01;12.93;;;9.53;;
18580;SDS011;9420;50.876;7.012;2023-04-10T06:18:28;18.20;;;9.83;;
18580;SDS011;9420;50.876;7.012;2023-04-10T06:20:55;13.63;;;9.13;;
18580;SDS011;9420;50.876;7.012;2023-04-10T06:23:25;11.83;;;9.07;;
18580;SDS011;9420;50.876;7.012;2023-04-10T06:25:52;16.23;;;10.30;;
18580;SDS011;9420;50.876;7.012;2023-04-10T06:28:20;11.97;;;9.40;;
18580;SDS011;9420;50.876;7.012;2023-04-10T06:30:47;12.33;;;8.83;;
18580;SDS011;9420;50.876;7.012;2023-04-10T06:33:15;14.63;;;9.07;;
18580;SDS011;9420;50.876;7.012;2023-04-10T06:35:42;12.60;;;9.17;;
18580;SDS011;9420;50.876;7.012;2023-04-10T06:38:09;13.93;;;9.30;;
18580;SDS011;9420;50.876;7.012;2023-04-10T06:40:36;12.67;;;9.20;;
18580;SDS011;9420;50.876;7.012;2023-04-10T06:43:03;11.00;;;9.00;;
18580;SDS011;9420;50.876;7.012;2023-04-10T06:45:30;13.40;;;9.57;;
18580;SDS011;9420;50.876;7.012;2023-04-10T06:47:57;11.70;;;9.00;;
18580;SDS011;9420;50.876;7.012;2023-04-10T06:50:26;13.67;;;9.53;;
18580;SDS011;9420;50.876;7.012;2023-04-10T06:52:53;12.00;;;9.07;;
18580;SDS011;9420;50.876;7.012;2023-04-10T06:55:23;13.27;;;9.67;;
18580;SDS011;9420;50.876;7.012;2023-04-10T06:57:51;11.90;;;8.83;;
18580;SDS011;9420;50.876;7.012;2023-04-10T07:00:20;11.87;;;9.33;;
18580;SDS011;9420;50.876;7.012;2023-04-10T07:02:48;11.43;;;8.80;;
18580;SDS011;9420;50.876;7.012;2023-04-10T07:05:18;12.57;;;9.90;;
18580;SDS011;9420;50.876;7.012;2023-04-10T07:07:47;12.07;;;8.97;;
18580;SDS011;9420;50.876;7.012;2023-04-10T07:10:15;12.93;;;8.97;;
18580;SDS011;9420;50.876;7.012;2023-04-10T07:12:42;12.77;;;9.20;;
18580;SDS011;9420;50.876;7.012;2023-04-10T07:15:10;12.63;;;8.70;;
18580;SDS011;9420;50.876;7.012;2023-04-10T07:17:37;12.87;;;9.63;;
18580;SDS011;9420;50.876;7.012;2023-04-10T07:20:05;11.43;;;9.00;;
18580;SDS011;9420;50.876;7.012;2023-04-10T07:22:33;9.83;;;7.50;;
18580;SDS011;9420;50.876;7.012;2023-04-10T07:25:01;13.40;;;9.50;;
18580;SDS011;9420;50.876;7.012;2023-04-10T07:27:29;14.00;;;8.70;;
18580;SDS011;9420;50.876;7.012;2023-04-10T07:29:56;10.77;;;7.80;;
18580;SDS011;9420;50.876;7.012;2023-04-10T07:32:23;10.80;;;8.27;;
18580;SDS011;9420;50.876;7.012;2023-04-10T07:34:50;10.57;;;7.87;;
18580;SDS011;9420;50.876;7.012;2023-04-10T07:37:17;10.93;;;7.87;;
18580;SDS011;9420;50.876;7.012;2023-04-10T07:39:46;9.17;;;7.77;;
18580;SDS011;9420;50.876;7.012;2023-04-10T07:42:14;9.83;;;7.83;;
18580;SDS011;9420;50.876;7.012;2023-04-10T07:44:41;9.17;;;7.13;;
18580;SDS011;9420;50.876;7.012;2023-04-10T07:47:09;9.33;;;7.53;;
18580;SDS011;9420;50.876;7.012;2023-04-10T07:49:36;9.37;;;7.20;;
18580;SDS011;9420;50.876;7.012;2023-04-10T07:52:03;10.43;;;7.23;;
18580;SDS011;9420;50.876;7.012;2023-04-10T07:54:31;9.80;;;7.00;;
18580;SDS011;9420;50.876;7.012;2023-04-10T07:56:59;8.87;;;6.93;;
18580;SDS011;9420;50.876;7.012;2023-04-10T07:59:27;9.53;;;7.20;;
18580;SDS011;9420;50.876;7.012;2023-04-10T08:01:54;8.97;;;7.30;;
18580;SDS011;9420;50.876;7.012;2023-04-10T08:04:21;9.27;;;6.87;;
18580;SDS011;9420;50.876;7.012;2023-04-10T08:06:48;9.03;;;7.40;;
18580;SDS011;9420;50.876;7.012;2023-04-10T08:09:17;9.10;;;7.10;;
18580;SDS011;9420;50.876;7.012;2023-04-10T08:11:44;10.23;;;7.30;;
18580;SDS011;9420;50.876;7.012;2023-04-10T08:14:11;9.10;;;7.47;;
18580;SDS011;9420;50.876;7.012;2023-04-10T08:16:39;10.37;;;6.93;;
18580;SDS011;9420;50.876;7.012;2023-04-10T08:19:07;8.63;;;6.90;;
18580;SDS011;9420;50.876;7.012;2023-04-10T08:21:34;7.30;;;5.77;;
18580;SDS011;9420;50.876;7.012;2023-04-10T08:24:01;8.80;;;6.53;;
18580;SDS011;9420;50.876;7.012;2023-04-10T08:26:30;7.23;;;6.13;;
18580;SDS011;9420;50.876;7.012;2023-04-10T08:28:58;7.17;;;5.90;;
18580;SDS011;9420;50.876;7.012;2023-04-10T08:31:26;8.33;;;5.67;;
18580;SDS011;9420;50.876;7.012;2023-04-10T08:33:55;8.57;;;6.77;;
18580;SDS011;9420;50.876;7.012;2023-04-10T08:36:23;7.33;;;5.73;;
18580;SDS011;9420;50.876;7.012;2023-04-10T08:38:51;7.80;;;6.43;;
18580;SDS011;9420;50.876;7.012;2023-04-10T08:41:18;7.10;;;5.57;;
18580;SDS011;9420;50.876;7.012;2023-04-10T08:43:46;7.47;;;5.57;;
18580;SDS011;9420;50.876;7.012;2023-04-10T08:46:13;6.57;;;5.87;;
18580;SDS011;9420;50.876;7.012;2023-04-10T08:48:44;5.90;;;4.87;;
18580;SDS011;9420;50.876;7.012;2023-04-10T08:51:20;6.73;;;5.33;;
18580;SDS011;9420;50.876;7.012;2023-04-10T08:53:53;7.80;;;5.63;;
18580;SDS011;9420;50.876;7.012;2023-04-10T08:56:31;6.87;;;5.70;;
18580;SDS011;9420;50.876;7.012;2023-04-10T08:59:02;7.37;;;5.57;;
18580;SDS011;9420;50.876;7.012;2023-04-10T09:01:29;7.60;;;5.67;;
18580;SDS011;9420;50.876;7.012;2023-04-10T09:03:58;7.80;;;5.40;;
18580;SDS011;9420;50.876;7.012;2023-04-10T09:06:27;6.97;;;4.63;;
18580;SDS011;9420;50.876;7.012;2023-04-10T09:08:55;5.37;;;4.27;;
18580;SDS011;9420;50.876;7.012;2023-04-10T09:11:24;6.17;;;5.00;;
18580;SDS011;9420;50.876;7.012;2023-04-10T09:14:28;5.80;;;5.10;;
18580;SDS011;9420;50.876;7.012;2023-04-10T09:17:13;5.90;;;4.43;;
18580;SDS011;9420;50.876;7.012;2023-04-10T09:19:44;6.87;;;4.83;;
18580;SDS011;9420;50.876;7.012;2023-04-10T09:22:14;7.13;;;4.97;;
18580;SDS011;9420;50.876;7.012;2023-04-10T09:24:43;6.83;;;5.57;;
18580;SDS011;9420;50.876;7.012;2023-04-10T09:27:25;7.27;;;4.87;;
18580;SDS011;9420;50.876;7.012;2023-04-10T09:29:55;6.93;;;5.03;;
18580;SDS011;9420;50.876;7.012;2023-04-10T09:32:34;6.33;;;5.13;;
18580;SDS011;9420;50.876;7.012;2023-04-10T09:35:04;6.73;;;5.03;;
18580;SDS011;9420;50.876;7.012;2023-04-10T09:37:35;6.20;;;4.97;;
18580;SDS011;9420;50.876;7.012;2023-04-10T09:40:03;5.30;;;4.43;;
18580;SDS011;9420;50.876;7.012;2023-04-10T09:42:32;7.97;;;5.37;;
18580;SDS011;9420;50.876;7.012;2023-04-10T09:45:02;6.07;;;4.73;;
18580;SDS011;9420;50.876;7.012;2023-04-10T09:47:30;6.77;;;5.17;;
18580;SDS011;9420;50.876;7.012;2023-04-10T09:49:58;5.67;;;5.07;;
18580;SDS011;9420;50.876;7.012;2023-04-10T09:52:27;7.27;;;5.43;;
18580;SDS011;9420;50.876;7.012;2023-04-10T09:54:59;7.50;;;6.07;;
18580;SDS011;9420;50.876;7.012;2023-04-10T09:57:29;7.67;;;5.17;;
18580;SDS011;9420;50.876;7.012;2023-04-10T09:59:59;5.70;;;4.50;;
18580;SDS011;9420;50.876;7.012;2023-04-10T10:02:29;6.17;;;4.57;;
18580;SDS011;9420;50.876;7.012;2023-04-10T10:05:03;5.57;;;4.30;;
18580;SDS011;9420;50.876;7.012;2023-04-10T10:07:31;5.00;;;4.00;;
18580;SDS011;9420;50.876;7.012;2023-04-10T10:10:01;4.80;;;4.10;;
18580;SDS011;9420;50.876;7.012;2023-04-10T10:12:31;5.87;;;3.93;;
18580;SDS011;9420;50.876;7.012;2023-04-10T10:15:15;6.33;;;4.80;;
18580;SDS011;9420;50.876;7.012;2023-04-10T10:17:54;5.40;;;4.60;;
18580;SDS011;9420;50.876;7.012;2023-04-10T10:20:33;5.20;;;4.20;;
18580;SDS011;9420;50.876;7.012;2023-04-10T10:23:05;4.63;;;3.83;;
18580;SDS011;9420;50.876;7.012;2023-04-10T10:25:34;4.23;;;3.43;;
18580;SDS011;9420;50.876;7.012;2023-04-10T10:28:04;6.37;;;4.07;;
18580;SDS011;9420;50.876;7.012;2023-04-10T10:30:31;4.80;;;3.53;;
18580;SDS011;9420;50.876;7.012;2023-04-10T10:33:00;4.90;;;4.37;;
18580;SDS011;9420;50.876;7.012;2023-04-10T10:35:31;4.73;;;3.73;;
18580;SDS011;9420;50.876;7.012;2023-04-10T10:38:01;4.57;;;3.80;;
18580;SDS011;9420;50.876;7.012;2023-04-10T10:40:30;6.23;;;4.07;;
18580;SDS011;9420;50.876;7.012;2023-04-10T10:43:09;5.80;;;4.13;;
18580;SDS011;9420;50.876;7.012;2023-04-10T10:45:45;5.13;;;3.90;;
18580;SDS011;9420;50.876;7.012;2023-04-10T10:48:19;4.63;;;4.17;;
18580;SDS011;9420;50.876;7.012;2023-04-10T10:50:51;4.57;;;3.87;;
18580;SDS011;9420;50.876;7.012;2023-04-10T10:53:31;4.43;;;3.63;;
18580;SDS011;9420;50.876;7.012;2023-04-10T10:59:01;5.27;;;3.97;;
18580;SDS011;9420;50.876;7.012;2023-04-10T11:01:28;4.77;;;3.90;;
18580;SDS011;9420;50.876;7.012;2023-04-10T11:03:55;3.87;;;3.47;;
18580;SDS011;9420;50.876;7.012;2023-04-10T11:12:15;5.53;;;4.30;;
18580;SDS011;9420;50.876;7.012;2023-04-10T11:14:45;4.87;;;3.80;;
18580;SDS011;9420;50.876;7.012;2023-04-10T11:20:14;3.67;;;3.20;;
18580;SDS011;9420;50.876;7.012;2023-04-10T11:25:44;3.60;;;3.30;;
18580;SDS011;9420;50.876;7.012;2023-04-10T11:28:34;5.20;;;3.10;;
18580;SDS011;9420;50.876;7.012;2023-04-10T11:31:13;4.30;;;3.67;;
18580;SDS011;9420;50.876;7.012;2023-04-10T11:33:46;3.47;;;3.17;;
18580;SDS011;9420;50.876;7.012;2023-04-10T11:36:16;4.97;;;3.50;;
18580;SDS011;9420;50.876;7.012;2023-04-10T11:38:53;2.93;;;2.50;;
18580;SDS011;9420;50.876;7.012;2023-04-10T11:41:25;10.40;;;3.10;;
18580;SDS011;9420;50.876;7.012;2023-04-10T11:43:56;3.47;;;2.93;;
18580;SDS011;9420;50.876;7.012;2023-04-10T11:46:25;4.03;;;2.87;;
18580;SDS011;9420;50.876;7.012;2023-04-10T11:48:52;5.10;;;3.73;;
18580;SDS011;9420;50.876;7.012;2023-04-10T11:51:22;2.63;;;2.43;;
18580;SDS011;9420;50.876;7.012;2023-04-10T11:54:03;3.70;;;2.80;;
18580;SDS011;9420;50.876;7.012;2023-04-10T11:56:33;3.70;;;3.30;;
18580;SDS011;9420;50.876;7.012;2023-04-10T11:59:02;3.23;;;2.33;;
18580;SDS011;9420;50.876;7.012;2023-04-10T12:01:34;2.60;;;2.40;;
18580;SDS011;9420;50.876;7.012;2023-04-10T12:04:02;3.80;;;2.73;;
18580;SDS011;9420;50.876;7.012;2023-04-10T12:06:38;3.40;;;2.43;;
18580;SDS011;9420;50.876;7.012;2023-04-10T12:09:11;3.00;;;2.50;;
18580;SDS011;9420;50.876;7.012;2023-04-10T12:11:46;3.43;;;2.50;;
18580;SDS011;9420;50.876;7.012;2023-04-10T12:14:17;3.13;;;2.20;;
18580;SDS011;9420;50.876;7.012;2023-04-10T12:16:45;2.43;;;2.23;;
18580;SDS011;9420;50.876;7.012;2023-04-10T12:19:13;3.00;;;2.13;;
18580;SDS011;9420;50.876;7.012;2023-04-10T12:21:43;2.43;;;2.23;;
18580;SDS011;9420;50.876;7.012;2023-04-10T12:24:11;3.27;;;2.20;;
18580;SDS011;9420;50.876;7.012;2023-04-10T12:26:45;2.53;;;2.33;;
18580;SDS011;9420;50.876;7.012;2023-04-10T12:29:14;2.33;;;1.77;;
18580;SDS011;9420;50.876;7.012;2023-04-10T12:31:42;4.93;;;1.57;;
18580;SDS011;9420;50.876;7.012;2023-04-10T12:34:09;4.17;;;2.17;;
18580;SDS011;9420;50.876;7.012;2023-04-10T12:36:44;1.97;;;1.70;;
18580;SDS011;9420;50.876;7.012;2023-04-10T12:39:21;2.73;;;2.07;;
18580;SDS011;9420;50.876;7.012;2023-04-10T12:41:50;2.47;;;2.27;;
18580;SDS011;9420;50.876;7.012;2023-04-10T12:44:17;1.97;;;1.73;;
18580;SDS011;9420;50.876;7.012;2023-04-10T12:46:46;3.23;;;2.33;;
18580;SDS011;9420;50.876;7.012;2023-04-10T12:49:14;2.47;;;1.90;;
18580;SDS011;9420;50.876;7.012;2023-04-10T12:51:44;2.83;;;2.40;;
18580;SDS011;9420;50.876;7.012;2023-04-10T12:54:28;1.83;;;1.60;;
18580;SDS011;9420;50.876;7.012;2023-04-10T12:56:57;2.03;;;1.93;;
18580;SDS011;9420;50.876;7.012;2023-04-10T12:59:26;1.87;;;1.53;;
18580;SDS011;9420;50.876;7.012;2023-04-10T13:01:55;3.43;;;2.63;;
18580;SDS011;9420;50.876;7.012;2023-04-10T13:04:22;2.10;;;1.90;;
18580;SDS011;9420;50.876;7.012;2023-04-10T13:06:50;2.13;;;1.80;;
18580;SDS011;9420;50.876;7.012;2023-04-10T13:09:17;3.13;;;1.77;;
18580;SDS011;9420;50.876;7.012;2023-04-10T13:11:45;2.20;;;2.00;;
18580;SDS011;9420;50.876;7.012;2023-04-10T13:14:12;2.10;;;1.90;;
18580;SDS011;9420;50.876;7.012;2023-04-10T13:16:39;2.85;;;2.50;;
18580;SDS011;9420;50.876;7.012;2023-04-10T13:19:07;2.15;;;1.88;;
18580;SDS011;9420;50.876;7.012;2023-04-10T13:21:34;4.55;;;2.28;;
18580;SDS011;9420;50.876;7.012;2023-04-10T13:24:01;2.92;;;2.17;;
18580;SDS011;9420;50.876;7.012;2023-04-10T13:26:28;2.75;;;1.92;;
18580;SDS011;9420;50.876;7.012;2023-04-10T13:28:55;2.38;;;2.15;;
18580;SDS011;9420;50.876;7.012;2023-04-10T13:31:23;3.03;;;2.47;;
18580;SDS011;9420;50.876;7.012;2023-04-10T13:33:55;2.40;;;2.20;;
18580;SDS011;9420;50.876;7.012;2023-04-10T13:36:23;2.38;;;2.17;;
18580;SDS011;9420;50.876;7.012;2023-04-10T13:38:51;2.15;;;1.95;;
18580;SDS011;9420;50.876;7.012;2023-04-10T13:41:19;2.50;;;2.25;;
18580;SDS011;9420;50.876;7.012;2023-04-10T13:43:47;2.38;;;2.10;;
18580;SDS011;9420;50.876;7.012;2023-04-10T13:46:15;2.50;;;2.00;;
18580;SDS011;9420;50.876;7.012;2023-04-10T13:48:42;2.30;;;2.03;;
18580;SDS011;9420;50.876;7.012;2023-04-10T13:51:10;3.25;;;2.30;;
18580;SDS011;9420;50.876;7.012;2023-04-10T13:53:39;2.30;;;2.10;;
18580;SDS011;9420;50.876;7.012;2023-04-10T13:56:06;2.72;;;2.10;;
18580;SDS011;9420;50.876;7.012;2023-04-10T13:58:34;2.45;;;2.17;;
18580;SDS011;9420;50.876;7.012;2023-04-10T14:01:01;2.38;;;2.03;;
18580;SDS011;9420;50.876;7.012;2023-04-10T14:03:29;2.47;;;2.28;;
18580;SDS011;9420;50.876;7.012;2023-04-10T14:05:56;2.70;;;2.40;;
18580;SDS011;9420;50.876;7.012;2023-04-10T14:08:23;2.28;;;2.03;;
18580;SDS011;9420;50.876;7.012;2023-04-10T14:10:52;5.55;;;2.08;;
18580;SDS011;9420;50.876;7.012;2023-04-10T14:18:40;2.40;;;2.00;;
18580;SDS011;9420;50.876;7.012;2023-04-10T14:21:07;2.25;;;1.90;;
18580;SDS011;9420;50.876;7.012;2023-04-10T14:23:34;2.30;;;2.08;;
18580;SDS011;9420;50.876;7.012;2023-04-10T14:26:04;2.00;;;1.80;;
18580;SDS011;9420;50.876;7.012;2023-04-10T14:28:32;2.47;;;2.03;;
18580;SDS011;9420;50.876;7.012;2023-04-10T14:30:59;3.03;;;2.67;;
18580;SDS011;9420;50.876;7.012;2023-04-10T14:33:27;2.87;;;2.20;;
18580;SDS011;9420;50.876;7.012;2023-04-10T14:35:54;2.10;;;1.83;;
18580;SDS011;9420;50.876;7.012;2023-04-10T14:38:21;3.43;;;1.73;;
18580;SDS011;9420;50.876;7.012;2023-04-10T14:40:48;2.43;;;2.17;;
18580;SDS011;9420;50.876;7.012;2023-04-10T14:43:16;3.37;;;1.93;;
18580;SDS011;9420;50.876;7.012;2023-04-10T14:45:43;2.03;;;1.83;;
18580;SDS011;9420;50.876;7.012;2023-04-10T14:48:10;2.53;;;1.83;;
18580;SDS011;9420;50.876;7.012;2023-04-10T14:50:38;2.20;;;1.33;;
18580;SDS011;9420;50.876;7.012;2023-04-10T14:53:05;3.27;;;2.10;;
18580;SDS011;9420;50.876;7.012;2023-04-10T14:55:33;2.23;;;1.43;;
18580;SDS011;9420;50.876;7.012;2023-04-10T14:58:00;2.23;;;1.70;;
18580;SDS011;9420;50.876;7.012;2023-04-10T15:00:29;1.97;;;1.77;;
18580;SDS011;9420;50.876;7.012;2023-04-10T15:02:58;2.07;;;1.70;;
18580;SDS011;9420;50.876;7.012;2023-04-10T15:05:25;3.63;;;1.50;;
18580;SDS011;9420;50.876;7.012;2023-04-10T15:07:53;2.03;;;1.60;;
18580;SDS011;9420;50.876;7.012;2023-04-10T15:10:21;2.40;;;2.17;;
18580;SDS011;9420;50.876;7.012;2023-04-10T15:12:48;2.33;;;1.50;;
18580;SDS011;9420;50.876;7.012;2023-04-10T15:15:15;2.60;;;1.70;;
18580;SDS011;9420;50.876;7.012;2023-04-10T15:17:44;1.60;;;1.50;;
18580;SDS011;9420;50.876;7.012;2023-04-10T15:20:11;2.03;;;1.83;;
18580;SDS011;9420;50.876;7.012;2023-04-10T15:22:38;2.93;;;2.00;;
18580;SDS011;9420;50.876;7.012;2023-04-10T15:25:07;1.83;;;1.60;;
18580;SDS011;9420;50.876;7.012;2023-04-10T15:27:36;3.93;;;2.03;;
18580;SDS011;9420;50.876;7.012;2023-04-10T15:30:04;2.07;;;1.77;;